createdAt,value
2017-07-14T00:01:22.728Z,77.30
2017-07-14T00:03:50.161Z,78.30
2017-07-14T00:06:17.613Z,78.70
2017-07-14T00:08:45.053Z,78.40
2017-07-14T00:11:12.541Z,77.70
2017-07-14T00:13:39.967Z,78.00
2017-07-14T00:16:07.391Z,77.80
2017-07-14T00:18:34.812Z,77.90
2017-07-14T00:21:02.229Z,76.80
2017-07-14T00:23:29.659Z,77.20
2017-07-14T00:25:57.082Z,76.10
2017-07-14T00:28:24.506Z,76.00
2017-07-14T00:30:51.930Z,76.30
2017-07-14T00:33:20.131Z,78.20
2017-07-14T00:35:47.559Z,77.40
2017-07-14T00:38:15.749Z,77.70
2017-07-14T00:40:43.184Z,77.60
2017-07-14T00:43:10.604Z,78.30
2017-07-14T00:45:38.040Z,78.70
2017-07-14T00:48:05.465Z,78.80
2017-07-14T00:50:33.648Z,79.30
2017-07-14T00:53:01.097Z,79.30
2017-07-14T00:55:28.601Z,78.90
2017-07-14T00:57:56.036Z,78.10
2017-07-14T01:00:23.470Z,78.20
2017-07-14T01:02:51.682Z,79.50
2017-07-14T01:05:19.107Z,79.50
2017-07-14T01:07:46.529Z,79.30
2017-07-14T01:10:13.965Z,79.20
2017-07-14T01:12:41.395Z,79.60
2017-07-14T01:15:08.821Z,79.50
2017-07-14T01:17:36.241Z,79.60
2017-07-14T01:20:03.676Z,79.40
2017-07-14T01:22:31.118Z,79.10
2017-07-14T01:24:58.536Z,79.10
2017-07-14T01:27:26.726Z,79.30
2017-07-14T01:29:54.155Z,79.30
2017-07-14T01:32:22.345Z,79.60
2017-07-14T01:34:49.773Z,80.10
2017-07-14T01:37:17.197Z,81.00
2017-07-14T01:39:44.633Z,81.50
2017-07-14T01:42:12.054Z,81.10
2017-07-14T01:44:40.246Z,81.30
2017-07-14T01:47:07.683Z,81.30
2017-07-14T01:49:35.196Z,82.40
2017-07-14T01:52:02.637Z,83.10
2017-07-14T01:54:30.053Z,82.80
2017-07-14T01:56:58.284Z,83.60
2017-07-14T01:59:25.710Z,83.60
2017-07-14T02:01:53.133Z,83.80
2017-07-14T02:04:21.329Z,82.80
2017-07-14T02:06:48.758Z,82.20
2017-07-14T02:09:16.962Z,82.50
2017-07-14T02:11:44.386Z,82.50
2017-07-14T02:14:11.814Z,82.00
2017-07-14T02:16:39.247Z,82.00
2017-07-14T02:19:06.672Z,82.20
2017-07-14T02:21:34.865Z,82.00
2017-07-14T02:24:02.285Z,81.90
2017-07-14T02:26:30.611Z,82.60
2017-07-14T02:28:58.027Z,81.90
2017-07-14T02:31:26.213Z,82.20
2017-07-14T02:33:53.644Z,82.20
2017-07-14T02:36:21.845Z,81.90
2017-07-14T02:38:49.273Z,81.90
2017-07-14T02:41:16.693Z,81.50
2017-07-14T02:43:44.115Z,82.30
2017-07-14T02:46:11.537Z,81.90
2017-07-14T02:48:39.729Z,81.80
2017-07-14T02:51:07.157Z,81.00
2017-07-14T02:53:34.581Z,81.30
2017-07-14T02:56:02.013Z,81.70
2017-07-14T02:58:29.434Z,81.30
2017-07-14T03:00:57.645Z,81.50
2017-07-14T03:03:25.076Z,81.40
2017-07-14T03:05:53.273Z,81.30
2017-07-14T03:08:20.701Z,81.30
2017-07-14T03:10:48.942Z,80.50
2017-07-14T03:13:16.367Z,80.40
2017-07-14T03:15:43.790Z,80.90
2017-07-14T03:18:12.014Z,81.60
2017-07-14T03:20:39.438Z,81.60
2017-07-14T03:23:06.897Z,81.80
2017-07-14T03:25:34.333Z,82.20
2017-07-14T03:28:02.525Z,82.60
2017-07-14T03:30:29.961Z,82.50
2017-07-14T03:32:57.403Z,82.70
2017-07-14T03:35:25.593Z,83.60
2017-07-14T03:37:53.038Z,83.60
2017-07-14T03:40:21.229Z,83.30
2017-07-14T03:42:48.669Z,83.20
2017-07-14T03:45:16.856Z,84.80
2017-07-14T03:47:44.301Z,84.80
2017-07-14T03:50:11.738Z,85.10
2017-07-14T03:52:39.154Z,85.50
2017-07-14T03:55:06.581Z,85.20
2017-07-14T03:57:34.008Z,85.40
2017-07-14T04:00:02.196Z,85.80
2017-07-14T04:02:29.638Z,85.80
2017-07-14T04:04:57.902Z,86.10
2017-07-14T04:07:25.334Z,86.10
2017-07-14T04:09:52.794Z,85.90
2017-07-14T04:12:20.257Z,85.40
2017-07-14T04:14:47.682Z,85.00
2017-07-14T04:17:15.122Z,84.30
2017-07-14T04:19:42.570Z,84.10
2017-07-14T04:22:09.992Z,83.00
2017-07-14T04:24:37.421Z,83.20
2017-07-14T04:27:04.845Z,83.20
2017-07-14T04:29:32.291Z,82.50
2017-07-14T04:32:00.484Z,82.20
2017-07-14T04:34:27.951Z,82.20
2017-07-14T04:36:55.373Z,82.40
2017-07-14T04:39:22.802Z,82.40
2017-07-14T04:41:51.025Z,81.10
2017-07-14T04:44:18.446Z,81.10
2017-07-14T04:46:46.670Z,80.60
2017-07-14T04:49:14.125Z,80.60
2017-07-14T04:51:41.561Z,80.50
2017-07-14T04:54:08.989Z,80.30
2017-07-14T04:56:36.414Z,80.20
2017-07-14T04:59:03.850Z,79.50
2017-07-14T05:01:31.282Z,79.20
2017-07-14T05:03:58.710Z,79.20
2017-07-14T05:06:26.935Z,79.70
2017-07-14T05:08:54.366Z,79.50
2017-07-14T05:11:21.792Z,79.80
2017-07-14T05:13:50.006Z,79.20
2017-07-14T05:16:17.430Z,79.10
2017-07-14T05:18:45.623Z,78.50
2017-07-14T05:21:13.040Z,78.50
2017-07-14T05:23:40.465Z,78.20
2017-07-14T05:26:07.910Z,78.80
2017-07-14T05:28:35.485Z,78.50
2017-07-14T05:31:02.923Z,78.70
2017-07-14T05:33:30.367Z,78.60
2017-07-14T05:35:57.780Z,78.50
2017-07-14T05:38:25.215Z,78.30
2017-07-14T05:40:52.652Z,78.40
2017-07-14T05:43:20.096Z,78.10
2017-07-14T05:45:47.531Z,77.20
2017-07-14T05:48:14.957Z,76.30
2017-07-14T05:50:42.386Z,75.60
2017-07-14T05:53:09.822Z,75.70
2017-07-14T05:55:37.250Z,75.60
2017-07-14T05:58:04.672Z,74.70
2017-07-14T06:00:32.107Z,74.10
2017-07-14T06:02:59.576Z,73.80
2017-07-14T06:05:27.019Z,73.60
2017-07-14T06:07:54.446Z,72.50
2017-07-14T06:10:22.662Z,73.00
2017-07-14T06:12:50.100Z,72.70
2017-07-14T06:15:17.519Z,73.00
2017-07-14T06:17:44.953Z,72.50
2017-07-14T06:20:13.166Z,73.00
2017-07-14T06:22:40.586Z,73.00
2017-07-14T06:25:08.788Z,73.20
2017-07-14T06:27:36.270Z,73.20
2017-07-14T06:30:03.693Z,72.90
2017-07-14T06:32:31.127Z,73.10
2017-07-14T06:34:59.322Z,72.50
2017-07-14T06:37:26.766Z,72.40
2017-07-14T06:39:54.965Z,71.20
2017-07-14T06:42:23.399Z,71.20
2017-07-14T06:44:50.822Z,70.50
2017-07-14T06:47:18.295Z,69.50
2017-07-14T06:49:45.704Z,66.80
2017-07-14T06:52:13.146Z,66.40
2017-07-14T06:54:40.593Z,65.50
2017-07-14T06:57:08.791Z,64.80
2017-07-14T06:59:36.236Z,64.70
2017-07-14T07:02:03.673Z,63.40
2017-07-14T07:04:31.198Z,65.00
2017-07-14T07:06:58.622Z,64.90
2017-07-14T07:09:26.054Z,64.20
2017-07-14T07:11:53.499Z,62.60
2017-07-14T07:14:21.735Z,60.70
2017-07-14T07:16:49.158Z,60.70
2017-07-14T07:19:16.593Z,63.60
2017-07-14T07:21:44.790Z,65.10
2017-07-14T07:24:12.237Z,64.90
2017-07-14T07:26:39.690Z,65.40
2017-07-14T07:29:07.151Z,64.90
2017-07-14T07:31:34.598Z,63.60
2017-07-14T07:34:02.014Z,63.20
2017-07-14T07:36:29.490Z,63.40
2017-07-14T07:42:13.293Z,62.20
2017-07-14T07:44:40.790Z,63.00
2017-07-14T07:47:13.934Z,63.00
2017-07-14T07:49:41.410Z,62.80
2017-07-14T07:52:08.876Z,61.40
2017-07-14T07:54:36.328Z,61.80
2017-07-14T07:57:03.772Z,61.40
2017-07-14T07:59:31.237Z,61.60
2017-07-14T08:01:58.702Z,61.00
2017-07-14T08:04:26.142Z,63.00
2017-07-14T08:06:53.565Z,61.20
2017-07-14T08:09:21.052Z,62.00
2017-07-14T08:11:48.513Z,58.90
2017-07-14T08:14:15.941Z,57.70
2017-07-14T08:16:43.380Z,58.10
2017-07-14T08:19:11.565Z,57.90
2017-07-14T08:21:38.993Z,57.90
2017-07-14T08:24:06.421Z,58.30
2017-07-14T08:26:33.845Z,58.10
2017-07-14T08:29:01.277Z,58.10
2017-07-14T08:31:29.494Z,58.60
2017-07-14T08:33:56.921Z,58.60
2017-07-14T08:36:24.360Z,58.00
2017-07-14T08:38:52.554Z,58.30
2017-07-14T08:41:19.984Z,58.30
2017-07-14T08:43:47.412Z,57.80
2017-07-14T08:46:14.832Z,55.80
2017-07-14T08:48:42.260Z,55.60
2017-07-14T08:51:10.445Z,55.30
2017-07-14T08:53:37.871Z,55.30
2017-07-14T08:56:06.073Z,54.80
2017-07-14T08:58:33.491Z,54.10
2017-07-14T09:01:01.007Z,53.80
2017-07-14T09:03:28.426Z,54.10
2017-07-14T09:05:56.617Z,50.60
2017-07-14T09:08:24.039Z,50.60
2017-07-14T09:10:52.249Z,50.00
2017-07-14T09:13:20.468Z,49.70
2017-07-14T09:15:47.902Z,50.00
2017-07-14T09:18:15.354Z,49.90
2017-07-14T09:20:42.796Z,50.50
2017-07-14T09:23:10.213Z,50.70
2017-07-14T09:25:37.633Z,51.20
2017-07-14T09:28:05.818Z,51.50
2017-07-14T09:30:33.254Z,51.50
2017-07-14T09:33:00.700Z,50.60
2017-07-14T09:35:28.135Z,50.70
2017-07-14T09:37:55.567Z,49.00
2017-07-14T09:40:22.988Z,50.10
2017-07-14T09:42:51.173Z,47.10
2017-07-14T09:45:18.618Z,47.10
2017-07-14T09:47:46.817Z,48.30
2017-07-14T09:50:14.239Z,48.30
2017-07-14T09:52:41.671Z,48.50
2017-07-14T09:55:09.137Z,49.00
2017-07-14T09:57:36.562Z,48.90
2017-07-14T10:00:03.998Z,48.40
2017-07-14T10:02:31.425Z,48.40
2017-07-14T10:04:59.614Z,47.60
2017-07-14T10:07:27.056Z,47.60
2017-07-14T10:09:55.253Z,46.70
2017-07-14T10:12:22.685Z,46.60
2017-07-14T10:14:50.115Z,46.40
2017-07-14T10:17:17.575Z,46.30
2017-07-14T10:19:45.765Z,47.00
2017-07-14T10:22:13.211Z,47.00
2017-07-14T10:24:40.636Z,47.90
2017-07-14T10:27:08.865Z,46.60
2017-07-14T10:29:36.298Z,46.60
2017-07-14T10:32:03.777Z,46.80
2017-07-14T10:34:31.258Z,45.90
2017-07-14T10:36:58.703Z,45.30
2017-07-14T10:39:26.135Z,45.80
2017-07-14T10:41:54.324Z,44.90
2017-07-14T10:44:21.821Z,44.30
2017-07-14T10:46:49.257Z,44.10
2017-07-14T10:49:16.709Z,44.70
2017-07-14T10:51:44.138Z,44.10
2017-07-14T10:54:12.360Z,42.30
2017-07-14T10:56:39.814Z,42.30
2017-07-14T10:59:07.270Z,42.30
2017-07-14T11:01:34.721Z,43.10
2017-07-14T11:04:02.149Z,43.30
2017-07-14T11:06:29.595Z,43.90
2017-07-14T11:08:57.790Z,44.00
2017-07-14T11:11:25.224Z,44.00
2017-07-14T11:13:53.412Z,42.70
2017-07-14T11:16:20.842Z,42.70
2017-07-14T11:18:48.349Z,42.40
2017-07-14T11:21:15.803Z,41.50
2017-07-14T11:23:43.241Z,40.60
2017-07-14T11:26:10.669Z,39.60
2017-07-14T11:28:38.885Z,38.80
2017-07-14T11:31:06.300Z,38.70
2017-07-14T11:33:34.517Z,40.90
2017-07-14T11:36:01.964Z,40.70
2017-07-14T11:38:29.405Z,40.00
2017-07-14T11:40:57.581Z,41.00
2017-07-14T11:43:25.001Z,41.00
2017-07-14T11:45:52.454Z,40.50
2017-07-14T11:48:19.897Z,40.90
2017-07-14T11:50:47.328Z,41.00
2017-07-14T11:53:14.750Z,42.00
2017-07-14T11:55:42.950Z,41.50
2017-07-14T11:58:10.377Z,41.40
2017-07-14T12:00:38.586Z,42.70
2017-07-14T12:03:06.007Z,42.70
2017-07-14T12:05:33.510Z,43.10
2017-07-14T12:08:00.958Z,42.70
2017-07-14T12:10:28.394Z,42.00
2017-07-14T12:12:55.817Z,42.60
2017-07-14T12:15:23.247Z,40.90
2017-07-14T12:17:50.669Z,41.00
2017-07-14T12:20:18.106Z,40.30
2017-07-14T12:22:45.517Z,40.40
2017-07-14T12:25:12.953Z,38.90
2017-07-14T12:27:40.377Z,37.70
2017-07-14T12:30:08.075Z,35.70
2017-07-14T12:32:35.510Z,33.70
2017-07-14T12:35:02.973Z,34.40
2017-07-14T12:37:30.405Z,35.00
2017-07-14T12:39:57.881Z,35.60
2017-07-14T12:42:25.287Z,35.80
2017-07-14T12:44:52.817Z,37.20
2017-07-14T12:47:20.253Z,36.90
2017-07-14T12:49:47.742Z,35.00
2017-07-14T12:52:15.173Z,34.30
2017-07-14T12:54:42.600Z,32.70
2017-07-14T12:57:10.037Z,34.70
2017-07-14T12:59:38.260Z,34.00
2017-07-14T13:02:05.682Z,34.00
2017-07-14T13:04:33.107Z,31.70
2017-07-14T13:07:00.536Z,29.50
2017-07-14T13:09:27.956Z,27.70
2017-07-14T13:11:55.448Z,25.70
2017-07-14T13:14:22.880Z,26.60
2017-07-14T13:16:50.299Z,28.30
2017-07-14T13:19:17.729Z,30.60
2017-07-14T13:21:45.164Z,32.90
2017-07-14T13:24:12.615Z,35.40
2017-07-14T13:26:40.074Z,36.80
2017-07-14T13:29:07.486Z,37.50
2017-07-14T13:31:35.674Z,38.30
2017-07-14T13:34:03.093Z,38.20
2017-07-14T13:36:30.520Z,36.50
2017-07-14T13:38:57.943Z,34.70
2017-07-14T13:41:25.369Z,33.40
2017-07-14T13:43:53.560Z,30.20
2017-07-14T13:46:21.752Z,28.20
2017-07-14T13:48:49.243Z,28.20
2017-07-14T13:51:16.711Z,26.50
2017-07-14T13:53:44.161Z,26.90
2017-07-14T13:56:11.599Z,27.60
2017-07-14T13:58:39.017Z,27.20
2017-07-14T14:01:07.206Z,29.10
2017-07-14T14:03:34.626Z,29.10
2017-07-14T14:06:02.822Z,32.00
2017-07-14T14:08:30.317Z,31.80
2017-07-14T14:10:57.773Z,32.80
2017-07-14T14:13:25.195Z,32.70
2017-07-14T14:15:52.617Z,32.90
2017-07-14T14:18:20.047Z,31.90
2017-07-14T14:20:47.477Z,31.20
2017-07-14T14:23:14.892Z,32.20
2017-07-14T14:25:43.110Z,33.50
2017-07-14T14:28:10.572Z,33.50
2017-07-14T14:30:38.729Z,35.30
2017-07-14T14:33:06.164Z,35.30
2017-07-14T14:35:34.346Z,36.20
2017-07-14T14:38:01.781Z,36.10
2017-07-14T14:40:29.961Z,34.80
2017-07-14T14:42:58.147Z,34.40
2017-07-14T14:45:25.567Z,34.40
2017-07-14T14:47:53.087Z,33.60
2017-07-14T14:50:20.500Z,32.60
2017-07-14T14:52:48.693Z,31.80
2017-07-14T14:55:16.189Z,31.10
2017-07-14T14:57:43.610Z,31.30
2017-07-14T15:00:11.043Z,32.40
2017-07-14T15:02:39.269Z,34.80
2017-07-14T15:05:06.673Z,34.80
2017-07-14T15:07:34.863Z,35.90
2017-07-14T15:10:02.318Z,35.90
2017-07-14T15:12:29.740Z,36.80
2017-07-14T15:14:57.271Z,37.50
2017-07-14T15:17:24.725Z,38.30
2017-07-14T15:19:52.171Z,38.40
2017-07-14T15:22:19.607Z,38.40
2017-07-14T15:24:47.038Z,39.10
2017-07-14T15:27:15.243Z,40.20
2017-07-14T15:29:42.680Z,40.10
2017-07-14T15:32:10.877Z,41.20
2017-07-14T15:34:38.315Z,41.10
2017-07-14T15:37:05.764Z,41.20
2017-07-14T15:39:33.946Z,42.20
2017-07-14T15:42:01.387Z,42.10
2017-07-14T15:44:29.575Z,43.30
2017-07-14T15:46:57.031Z,42.70
2017-07-14T15:49:24.520Z,43.20
2017-07-14T15:51:51.953Z,43.70
2017-07-14T15:54:19.383Z,44.30
2017-07-14T15:56:47.598Z,45.20
2017-07-14T15:59:15.022Z,45.10
2017-07-14T16:01:43.214Z,45.90
2017-07-14T16:04:10.653Z,45.90
2017-07-14T16:06:38.083Z,46.10
2017-07-14T16:09:05.538Z,46.60
2017-07-14T16:11:32.969Z,47.60
2017-07-14T16:14:00.394Z,48.40
2017-07-14T16:19:01.782Z,49.10
2017-07-14T16:21:29.219Z,50.00
2017-07-14T16:23:56.641Z,50.20
2017-07-14T16:26:24.833Z,50.80
2017-07-14T16:28:52.285Z,50.80
2017-07-14T16:31:19.728Z,51.20
2017-07-14T16:33:47.928Z,52.00
2017-07-14T16:36:15.363Z,52.00
2017-07-14T16:38:42.800Z,52.70
2017-07-14T16:41:10.215Z,53.40
2017-07-14T16:43:37.646Z,54.10
2017-07-14T16:46:36.766Z,54.90
2017-07-14T16:49:04.197Z,54.90
2017-07-14T16:51:31.628Z,55.40
2017-07-14T16:53:59.828Z,54.80
2017-07-14T16:56:27.241Z,54.80
2017-07-14T16:58:54.764Z,54.70
2017-07-14T17:01:22.210Z,54.90
2017-07-14T17:03:49.641Z,55.20
2017-07-14T17:06:17.099Z,55.80
2017-07-14T17:08:44.535Z,57.20
2017-07-14T17:11:12.753Z,66.00
2017-07-14T17:13:40.203Z,65.00
2017-07-14T17:16:07.682Z,67.90
2017-07-14T17:18:35.133Z,70.40
2017-07-14T17:21:02.561Z,72.40
2017-07-14T17:23:30.004Z,74.10
2017-07-14T17:25:57.435Z,74.80
2017-07-14T17:28:24.975Z,75.50
2017-07-14T17:30:52.410Z,77.00
2017-07-14T17:33:20.167Z,78.10
2017-07-14T17:35:47.907Z,79.30
2017-07-14T17:38:16.631Z,81.40
2017-07-14T17:40:44.259Z,81.40
2017-07-14T17:43:11.950Z,81.30
2017-07-14T17:45:39.377Z,81.40
2017-07-14T17:48:06.913Z,82.30
2017-07-14T17:50:35.102Z,82.80
2017-07-14T17:53:02.521Z,82.90
2017-07-14T17:55:29.947Z,83.00
2017-07-14T17:57:57.371Z,83.80
2017-07-14T18:00:24.811Z,83.80
2017-07-14T18:02:52.232Z,83.50
2017-07-14T18:05:19.655Z,83.60
2017-07-14T18:07:47.088Z,83.40
2017-07-14T18:10:14.521Z,82.70
2017-07-14T18:12:42.708Z,82.70
2017-07-14T18:15:10.139Z,82.70
2017-07-14T18:17:38.326Z,82.20
2017-07-14T18:20:06.525Z,81.80
2017-07-14T18:22:33.944Z,81.80
2017-07-14T18:25:02.142Z,82.30
2017-07-14T18:27:29.569Z,82.20
2017-07-14T18:29:56.990Z,81.90
2017-07-14T18:32:24.424Z,80.50
2017-07-14T18:34:51.861Z,79.40
2017-07-14T18:37:19.402Z,78.00
2017-07-14T18:39:47.605Z,78.00
2017-07-14T18:42:15.118Z,78.00
2017-07-14T18:44:42.537Z,77.40
2017-07-14T18:47:09.975Z,77.40
2017-07-14T18:49:37.401Z,77.80
2017-07-14T18:52:05.611Z,77.70
2017-07-14T18:54:33.042Z,77.70
2017-07-14T18:57:01.237Z,77.20
2017-07-14T18:59:28.662Z,77.00
2017-07-14T19:01:56.854Z,78.00
2017-07-14T19:04:24.315Z,78.00
2017-07-14T19:06:51.832Z,78.10
2017-07-14T19:09:19.273Z,78.00
2017-07-14T19:11:46.713Z,78.30
2017-07-14T19:14:14.134Z,79.40
2017-07-14T19:16:41.563Z,82.10
2017-07-14T19:19:09.759Z,81.90
2017-07-14T19:21:37.225Z,81.90
2017-07-14T19:24:04.855Z,81.50
2017-07-14T19:26:33.233Z,85.40
2017-07-14T19:29:01.471Z,86.20
2017-07-14T19:31:29.138Z,86.20
2017-07-14T19:33:56.676Z,86.10
2017-07-14T19:36:25.722Z,85.90
2017-07-14T19:38:55.140Z,85.50
2017-07-14T19:41:22.749Z,88.40
2017-07-14T19:43:50.220Z,87.70
2017-07-14T19:46:17.670Z,88.40
2017-07-14T19:48:45.133Z,89.20
2017-07-14T19:51:12.722Z,88.60
2017-07-14T19:53:40.241Z,88.90
2017-07-14T19:59:06.974Z,87.70
2017-07-14T20:01:34.543Z,87.90
2017-07-14T20:04:02.162Z,87.70
2017-07-14T20:06:29.652Z,88.10
2017-07-14T20:08:57.168Z,88.20
2017-07-14T20:11:25.385Z,89.50
2017-07-14T20:13:52.920Z,89.50
2017-07-14T20:16:21.210Z,89.10
2017-07-14T20:18:48.703Z,89.10
2017-07-14T20:21:16.997Z,90.00
2017-07-14T20:23:45.217Z,90.00
2017-07-14T20:26:12.912Z,90.00
2017-07-14T20:28:40.431Z,90.10
2017-07-14T20:31:07.939Z,90.20
2017-07-14T20:33:35.552Z,90.40
2017-07-14T20:36:03.872Z,90.40
2017-07-14T20:38:31.406Z,90.40
2017-07-14T20:40:58.905Z,90.20
2017-07-14T20:43:26.403Z,90.70
2017-07-14T20:45:53.837Z,90.40
2017-07-14T20:48:21.820Z,90.30
2017-07-14T20:50:50.312Z,90.00
2017-07-14T20:53:28.107Z,91.00
2017-07-14T20:56:00.399Z,90.70
2017-07-14T20:58:27.875Z,89.80
2017-07-14T21:00:55.360Z,88.30
2017-07-14T21:03:23.670Z,86.80
2017-07-14T21:05:51.171Z,86.80
2017-07-14T21:08:19.621Z,87.70
2017-07-14T21:10:47.114Z,87.70
2017-07-14T21:13:14.635Z,89.30
2017-07-14T21:15:42.162Z,90.10
2017-07-14T21:18:09.654Z,90.00
2017-07-14T21:20:37.073Z,90.60
2017-07-14T21:23:04.550Z,90.50
2017-07-14T21:25:32.008Z,90.50
2017-07-14T21:27:59.534Z,90.20
2017-07-14T21:30:27.033Z,90.10
2017-07-14T21:32:54.552Z,90.00
2017-07-14T21:35:22.045Z,90.20
2017-07-14T21:37:49.574Z,90.40
2017-07-14T21:40:18.079Z,90.80
2017-07-14T21:42:45.919Z,90.70
2017-07-14T21:45:13.842Z,90.90
2017-07-14T21:47:41.736Z,91.20
2017-07-14T21:50:10.733Z,92.10
2017-07-14T21:52:39.508Z,92.10
2017-07-14T21:55:07.460Z,91.80
2017-07-14T21:57:35.969Z,91.80
2017-07-14T22:00:05.853Z,92.10
2017-07-14T22:02:33.372Z,92.10
2017-07-14T22:05:01.578Z,92.30
2017-07-14T22:07:34.306Z,92.30
2017-07-14T22:10:06.712Z,92.30
2017-07-14T22:12:34.275Z,92.30
2017-07-14T22:15:01.737Z,92.40
2017-07-14T22:17:29.239Z,92.40
2017-07-14T22:19:56.765Z,92.40
2017-07-14T22:22:24.222Z,92.50
2017-07-14T22:24:51.702Z,92.40
2017-07-14T22:27:19.159Z,92.30
2017-07-14T22:29:46.883Z,92.40
2017-07-14T22:32:14.362Z,92.10
2017-07-14T22:34:41.847Z,92.00
2017-07-14T22:37:09.322Z,92.10
2017-07-14T22:39:36.942Z,92.30
2017-07-14T22:42:04.573Z,92.20
2017-07-14T22:44:32.058Z,91.70
2017-07-14T22:46:59.492Z,91.80
2017-07-14T22:49:26.994Z,91.90
2017-07-14T22:51:54.540Z,91.80
2017-07-14T22:54:22.874Z,91.70
2017-07-14T22:56:50.357Z,91.70
2017-07-14T22:59:17.867Z,91.70
2017-07-14T23:01:46.077Z,91.80
2017-07-14T23:04:13.565Z,91.80
2017-07-14T23:06:41.030Z,91.80
2017-07-14T23:09:08.484Z,91.90
2017-07-14T23:11:35.946Z,91.80
2017-07-14T23:14:04.216Z,91.80
2017-07-14T23:16:31.718Z,91.80
2017-07-14T23:18:59.224Z,91.90
2017-07-14T23:21:27.501Z,92.00
2017-07-14T23:23:56.124Z,92.30
2017-07-14T23:26:23.954Z,92.30
2017-07-14T23:28:51.733Z,92.30
2017-07-14T23:31:19.425Z,92.30
2017-07-14T23:33:47.039Z,92.30
2017-07-14T23:36:15.482Z,92.50
2017-07-14T23:38:43.081Z,92.30
2017-07-14T23:41:10.833Z,92.40
2017-07-14T23:43:38.382Z,92.30
2017-07-14T23:46:05.951Z,92.30
2017-07-14T23:48:33.935Z,92.20
2017-07-14T23:51:01.951Z,92.20
2017-07-14T23:53:29.634Z,92.20
2017-07-14T23:55:57.063Z,92.10
2017-07-14T23:58:24.617Z,91.90
